Time;durP1;ratioP1;P1;durP2;ratioP2;P2;SDS_P1;SDS_P2;PMS_P1;PMS_P2;Temp;Humidity;BMP_temperature;BMP_pressure;BME280_temperature;BME280_humidity;BME280_pressure;Samples;Min_cycle;Max_cycle;Signal;HPM_P1;HPM_P2
2022/06/09 00:00:11;;;;;;;3.60;3.33;;;;;;;20.79;49.51;99908.41;1681938;83;21040;-68
2022/06/09 00:02:42;;;;;;;4.33;4.05;;;;;;;20.73;49.27;99909.48;1693569;83;21149;-67
2022/06/09 00:05:12;;;;;;;5.00;3.20;;;;;;;20.66;48.60;99904.31;1693014;83;21488;-68
2022/06/09 00:07:39;;;;;;;4.12;3.75;;;;;;;20.64;48.67;99907.83;1698971;83;21016;-66
2022/06/09 00:10:11;;;;;;;4.37;3.27;;;;;;;20.61;48.90;99906.47;1682876;83;21256;-66
2022/06/09 00:12:39;;;;;;;2.90;2.80;;;;;;;20.61;48.37;99911.08;1666051;84;21009;-66
2022/06/09 00:15:10;;;;;;;3.55;3.27;;;;;;;20.59;48.11;99904.54;1660304;85;21628;-66
2022/06/09 00:17:37;;;;;;;2.98;2.77;;;;;;;20.59;48.33;99904.54;1659954;85;21120;-65
2022/06/09 00:20:06;;;;;;;2.67;2.47;;;;;;;20.60;47.76;99902.67;1657511;85;21139;-66
2022/06/09 00:22:32;;;;;;;3.25;3.05;;;;;;;20.58;47.68;99905.61;1672832;84;21090;-67
2022/06/09 00:24:58;;;;;;;3.80;2.87;;;;;;;20.59;47.74;99904.54;1681156;84;21026;-65
2022/06/09 00:27:25;;;;;;;2.85;2.45;;;;;;;20.59;47.75;99903.73;1705270;83;21066;-63
2022/06/09 00:29:51;;;;;;;2.50;2.27;;;;;;;20.57;47.78;99905.35;1705605;84;21051;-67
2022/06/09 00:32:17;;;;;;;;;;;;;;;20.55;47.63;99899.91;1687259;84;21123;-66
2022/06/09 00:34:44;;;;;;;2.17;2.07;;;;;;;20.54;47.47;99902.36;1655785;84;20168;-66
2022/06/09 00:37:10;;;;;;;2.70;2.60;;;;;;;20.48;47.53;99904.77;1651615;84;21028;-62
2022/06/09 00:39:38;;;;;;;2.60;2.45;;;;;;;20.47;47.95;99904.48;1644794;85;21078;-63
2022/06/09 00:42:05;;;;;;;7.55;2.72;;;;;;;20.45;48.34;99908.00;1654180;86;21077;-65
2022/06/09 00:44:31;;;;;;;3.95;3.40;;;;;;;20.41;48.88;99913.93;1673020;85;21570;-65
2022/06/09 00:47:01;;;;;;;;;;;;;;;20.35;49.40;99912.83;1694449;83;21125;-66
2022/06/09 00:49:36;;;;;;;3.25;3.02;;;;;;;20.28;49.54;99906.84;1683662;85;20199;-64
2022/06/09 00:52:05;;;;;;;3.02;2.80;;;;;;;20.14;50.11;99910.56;1678800;85;21528;-64
2022/06/09 00:54:44;;;;;;;3.80;2.80;;;;;;;20.05;50.32;99911.59;1668433;84;21050;-63
2022/06/09 00:57:34;;;;;;;3.42;2.90;;;;;;;20.00;50.48;99911.03;1652679;83;21072;-67
2022/06/09 01:00:09;;;;;;;11.35;3.17;;;;;;;19.97;50.43;99920.20;1640297;85;21108;-70
2022/06/09 01:02:37;;;;;;;3.47;3.02;;;;;;;19.92;50.96;99914.20;1652867;86;21069;-66
2022/06/09 01:05:06;;;;;;;3.05;2.72;;;;;;;19.87;50.85;99918.22;1651313;86;21049;-64
2022/06/09 01:07:40;;;;;;;2.90;2.52;;;;;;;19.86;51.07;99923.37;1649086;87;21142;-64
2022/06/09 01:10:08;;;;;;;3.05;2.85;;;;;;;19.82;51.63;99920.36;1650162;87;21449;-64
2022/06/09 01:12:42;;;;;;;2.72;2.62;;;;;;;19.77;51.53;99915.45;1618023;85;21605;-66
2022/06/09 01:15:15;;;;;;;4.95;3.00;;;;;;;19.73;51.67;99923.81;1703383;83;21025;-65
2022/06/09 01:17:56;;;;;;;3.00;2.75;;;;;;;19.69;51.79;99922.13;1690188;83;21037;-63
2022/06/09 01:21:09;;;;;;;5.03;2.85;;;;;;;19.65;51.94;99916.97;1687166;83;21069;-67
2022/06/09 01:24:15;;;;;;;3.62;3.10;;;;;;;19.63;51.93;99915.88;1690349;82;21216;-66
2022/06/09 01:27:01;;;;;;;3.27;3.08;;;;;;;19.56;52.29;99922.02;1682192;84;21150;-61
2022/06/09 01:30:03;;;;;;;3.30;2.87;;;;;;;19.51;52.34;99917.92;1690144;83;21117;-64
2022/06/09 01:32:53;;;;;;;3.08;2.80;;;;;;;19.47;52.68;99918.16;1673633;84;21136;-69
2022/06/09 01:35:34;;;;;;;3.33;3.05;;;;;;;19.42;52.90;99916.76;1680598;84;21053;-71
2022/06/09 01:38:00;;;;;;;3.83;2.90;;;;;;;19.36;53.22;99911.84;1674453;84;21136;-68
2022/06/09 01:40:28;;;;;;;3.87;3.52;;;;;;;19.32;53.16;99911.28;1675613;84;21114;-68
2022/06/09 01:42:57;;;;;;;5.35;3.08;;;;;;;19.30;53.19;99916.94;1676946;84;21386;-70
2022/06/09 01:45:38;;;;;;;3.35;2.95;;;;;;;19.29;53.58;99914.48;1655360;85;21164;-69
2022/06/09 01:48:18;;;;;;;5.87;3.50;;;;;;;19.28;53.42;99914.22;1657326;84;21117;-65
2022/06/09 01:51:05;;;;;;;3.87;3.37;;;;;;;19.25;53.51;99916.36;1672619;84;21084;-63
2022/06/09 01:53:58;;;;;;;3.55;3.25;;;;;;;19.24;53.62;99910.67;1661704;84;21068;-66
2022/06/09 01:56:49;;;;;;;3.72;2.77;;;;;;;19.25;53.69;99919.06;1673252;84;21589;-68
2022/06/09 01:59:26;;;;;;;3.80;3.50;;;;;;;19.27;53.79;99920.17;1700310;84;21017;-63
2022/06/09 02:02:04;;;;;;;2.45;2.35;;;;;;;19.30;53.78;99920.18;1683823;84;21006;-64
2022/06/09 02:04:44;;;;;;;7.72;2.60;;;;;;;19.33;53.55;99916.44;1697557;84;21036;-65
2022/06/09 02:07:14;;;;;;;3.15;2.90;;;;;;;19.39;53.37;99915.40;1658674;85;20994;-63
2022/06/09 02:09:40;;;;;;;4.85;2.67;;;;;;;19.40;53.30;99913.50;1688111;83;21080;-66
2022/06/09 02:12:15;;;;;;;3.00;2.35;;;;;;;19.44;53.05;99914.64;1688364;83;21623;-67
2022/06/09 02:14:50;;;;;;;4.58;3.02;;;;;;;19.49;52.85;99916.02;1714948;82;21018;-63
2022/06/09 02:17:19;;;;;;;5.58;3.42;;;;;;;19.56;52.73;99915.81;1716444;82;21133;-67
2022/06/09 02:19:49;;;;;;;3.98;3.40;;;;;;;19.60;52.66;99919.08;1718423;83;21113;-67
2022/06/09 02:22:16;;;;;;;3.77;2.67;;;;;;;19.71;52.43;99920.53;1716640;82;20969;-66
2022/06/09 02:24:42;;;;;;;5.40;3.72;;;;;;;19.91;52.04;99922.06;1686956;83;21207;-63
2022/06/09 02:27:09;;;;;;;;;;;;;;;20.15;51.35;99918.94;1697174;83;21582;-65
2022/06/09 02:29:36;;;;;;;5.75;3.20;;;;;;;20.33;50.96;99917.70;1699761;84;20093;-71
2022/06/09 02:32:04;;;;;;;3.72;2.70;;;;;;;20.37;50.62;99915.55;1699558;83;21007;-68
2022/06/09 02:34:31;;;;;;;3.08;2.83;;;;;;;20.42;50.47;99916.12;1724602;82;21053;-63
2022/06/09 02:36:57;;;;;;;8.50;3.90;;;;;;;20.47;50.27;99920.73;1723052;81;21165;-65
2022/06/09 02:39:24;;;;;;;3.60;3.30;;;;;;;20.53;50.29;99922.38;1743395;81;21134;-66
2022/06/09 02:41:51;;;;;;;3.17;2.90;;;;;;;20.75;50.14;99928.99;1736843;81;21559;-72
2022/06/09 02:44:17;;;;;;;4.28;2.77;;;;;;;21.11;50.03;99923.11;1733964;81;21556;-71
2022/06/09 02:46:43;;;;;;;3.20;3.00;;;;;;;21.48;49.64;99931.60;1740635;81;21038;-70
2022/06/09 02:49:10;;;;;;;2.98;2.77;;;;;;;21.80;49.15;99933.22;1739746;81;21076;-69
2022/06/09 02:51:41;;;;;;;3.33;3.12;;;;;;;22.14;48.04;99933.98;1717652;81;21039;-70
2022/06/09 02:54:12;;;;;;;4.45;3.08;;;;;;;22.52;47.40;99933.08;1734497;82;21067;-69
2022/06/09 02:56:41;;;;;;;2.67;2.58;;;;;;;22.95;46.77;99929.34;1704574;81;21081;-70
2022/06/09 02:59:07;;;;;;;10.43;2.95;;;;;;;23.43;45.92;99929.61;1716085;82;21172;-69
2022/06/09 03:01:33;;;;;;;5.80;3.25;;;;;;;23.93;44.63;99931.38;1699706;82;21022;-70
2022/06/09 03:04:02;;;;;;;6.85;3.12;;;;;;;24.25;43.11;99930.20;1716191;82;21073;-66
2022/06/09 03:06:29;;;;;;;6.00;2.35;;;;;;;24.54;42.58;99929.91;1715947;82;21097;-64
2022/06/09 03:08:55;;;;;;;3.58;2.92;;;;;;;24.94;42.22;99924.48;1704276;82;21138;-72
2022/06/09 03:11:21;;;;;;;6.30;2.52;;;;;;;25.40;41.11;99927.91;1712070;82;21173;-70
2022/06/09 03:13:47;;;;;;;2.62;2.10;;;;;;;25.81;40.34;99924.48;1673166;84;21040;-67
2022/06/09 03:16:16;;;;;;;6.37;2.20;;;;;;;26.20;39.32;99927.36;1669159;84;21691;-71
2022/06/09 03:18:45;;;;;;;2.42;2.22;;;;;;;26.53;38.85;99929.17;1710579;82;20992;-67
2022/06/09 03:21:13;;;;;;;3.70;1.95;;;;;;;26.79;37.55;99928.11;1709646;82;21027;-69
2022/06/09 03:23:42;;;;;;;2.05;1.85;;;;;;;26.96;37.30;99924.16;1716463;82;21599;-69
2022/06/09 03:26:09;;;;;;;6.95;2.27;;;;;;;27.10;37.78;99927.41;1723390;82;21133;-68
2022/06/09 03:28:37;;;;;;;4.97;2.90;;;;;;;27.25;37.55;99929.81;1714452;82;21517;-68
2022/06/09 03:31:04;;;;;;;5.70;1.87;;;;;;;27.60;37.49;99931.44;1715981;82;21169;-67
2022/06/09 03:33:30;;;;;;;2.85;2.00;;;;;;;28.04;37.07;99933.88;1717244;82;20999;-68
2022/06/09 03:35:56;;;;;;;3.85;2.30;;;;;;;28.49;36.81;99924.13;1717996;82;21007;-67
2022/06/09 03:38:22;;;;;;;3.22;2.55;;;;;;;28.88;35.93;99925.77;1713827;82;21054;-68
2022/06/09 03:40:49;;;;;;;4.60;2.85;;;;;;;29.16;35.77;99919.98;1717039;82;21050;-68
2022/06/09 03:43:16;;;;;;;3.77;3.35;;;;;;;29.40;35.42;99913.42;1714314;82;21038;-74
2022/06/09 03:45:42;;;;;;;8.08;2.80;;;;;;;29.64;34.89;99912.09;1693544;83;21057;-71
2022/06/09 03:48:09;;;;;;;2.60;2.40;;;;;;;29.86;34.39;99911.10;1690598;83;21119;-70
2022/06/09 03:50:35;;;;;;;5.25;1.92;;;;;;;30.16;34.19;99907.83;1657870;85;21104;-66
2022/06/09 03:53:03;;;;;;;3.52;3.33;;;;;;;30.42;32.39;99904.14;1692966;83;21121;-67
2022/06/09 03:55:30;;;;;;;7.92;5.03;;;;;;;30.40;33.38;99905.88;1695394;82;21613;-68
2022/06/09 03:57:57;;;;;;;8.70;7.75;;;;;;;30.58;33.16;99907.94;1698894;83;21534;-69
2022/06/09 04:00:28;;;;;;;10.40;9.48;;;;;;;30.84;33.46;99904.21;1693187;83;21046;-65
2022/06/09 04:02:54;;;;;;;7.12;4.33;;;;;;;31.06;33.08;99900.32;1669599;84;21070;-68
2022/06/09 04:05:21;;;;;;;8.83;8.05;;;;;;;31.22;32.35;99900.52;1670675;84;21169;-68
2022/06/09 04:07:48;;;;;;;3.92;2.72;;;;;;;31.25;31.82;99897.10;1666897;84;20983;-69
2022/06/09 04:10:22;;;;;;;4.47;2.50;;;;;;;31.26;30.89;99897.31;1639936;86;21505;-68
2022/06/09 04:12:50;;;;;;;3.72;1.42;;;;;;;31.23;31.00;99896.06;1659900;84;22118;-69
2022/06/09 04:15:19;;;;;;;2.42;1.70;;;;;;;31.26;30.93;99900.07;1661183;85;21141;-70
2022/06/09 04:17:47;;;;;;;4.67;2.22;;;;;;;31.34;30.46;99895.63;1664114;84;21117;-70
2022/06/09 04:20:19;;;;;;;4.40;1.50;;;;;;;31.58;30.44;99894.34;1697998;82;21561;-66
2022/06/09 04:22:46;;;;;;;3.05;1.27;;;;;;;31.89;29.56;99894.42;1703391;82;21579;-68
2022/06/09 04:25:13;;;;;;;1.75;1.12;;;;;;;32.16;29.29;99893.54;1714971;82;21600;-72
2022/06/09 04:27:39;;;;;;;4.03;1.40;;;;;;;32.39;28.99;99889.72;1713434;82;20985;-70
2022/06/09 04:30:08;;;;;;;1.10;0.88;;;;;;;32.64;28.65;99895.23;1716114;82;21083;-68
2022/06/09 04:32:35;;;;;;;4.95;1.40;;;;;;;32.85;28.23;99891.74;1706001;82;21034;-70
2022/06/09 04:35:01;;;;;;;2.87;1.40;;;;;;;32.83;27.65;99893.23;1718546;82;21482;-66
2022/06/09 04:40:13;;;;;;;3.02;0.80;;;;;;;32.86;27.23;99892.54;1722749;82;21128;-74
2022/06/09 04:42:40;;;;;;;2.10;1.87;;;;;;;32.85;26.88;99896.44;1717136;82;21553;-71
2022/06/09 04:45:07;;;;;;;2.33;2.12;;;;;;;33.00;27.33;99897.66;1720672;82;21533;-70
2022/06/09 04:47:35;;;;;;;5.40;2.10;;;;;;;33.24;27.13;99895.41;1717814;82;21087;-70
2022/06/09 04:50:02;;;;;;;2.50;0.98;;;;;;;33.43;26.59;99889.22;1723172;82;21142;-69
2022/06/09 04:52:28;;;;;;;1.45;0.70;;;;;;;33.54;25.96;99888.33;1722072;81;21187;-70
2022/06/09 04:54:55;;;;;;;4.70;0.72;;;;;;;33.56;26.14;99888.78;1721408;82;21122;-71
2022/06/09 04:57:21;;;;;;;5.70;0.53;;;;;;;33.51;26.35;99889.06;1730272;82;21034;-71
2022/06/09 04:59:48;;;;;;;1.90;0.68;;;;;;;33.40;25.85;99895.44;1719759;82;21074;-71
2022/06/09 05:02:14;;;;;;;1.72;0.70;;;;;;;33.37;25.96;99898.34;1719681;81;21077;-72
2022/06/09 05:04:40;;;;;;;3.10;0.25;;;;;;;33.22;25.18;99897.73;1717913;83;21069;-70
2022/06/09 05:07:08;;;;;;;1.10;0.20;;;;;;;33.11;25.03;99894.66;1719207;83;21510;-72
2022/06/09 05:09:34;;;;;;;2.52;0.47;;;;;;;33.14;24.96;99897.52;1723596;82;21597;-72
2022/06/09 05:12:01;;;;;;;3.22;0.85;;;;;;;33.23;25.83;99896.55;1719961;79;21041;-72
2022/06/09 05:14:27;;;;;;;1.00;0.42;;;;;;;33.33;25.54;99896.06;1723350;82;21561;-70
2022/06/09 05:16:55;;;;;;;2.37;0.40;;;;;;;33.38;24.98;99894.44;1721285;82;21061;-71
2022/06/09 05:19:21;;;;;;;2.95;0.45;;;;;;;33.33;25.52;99896.86;1714592;82;21517;-70
2022/06/09 05:21:48;;;;;;;2.00;0.50;;;;;;;33.27;24.20;99893.34;1717199;82;21105;-70
2022/06/09 05:24:15;;;;;;;2.27;0.65;;;;;;;33.29;24.56;99896.55;1727058;82;21022;-70
2022/06/09 05:26:41;;;;;;;5.22;0.30;;;;;;;33.42;24.51;99887.04;1720262;82;21072;-74
2022/06/09 05:32:02;;;;;;;2.37;0.37;;;;;;;33.68;24.29;99887.13;1803753;78;22823;-69
2022/06/09 05:34:30;;;;;;;2.90;0.30;;;;;;;33.67;24.10;99886.92;1751080;80;21038;-69
2022/06/09 05:36:58;;;;;;;4.12;0.50;;;;;;;33.51;24.15;99887.68;1732534;81;21042;-73
2022/06/09 05:45:02;;;;;;;0.80;0.30;;;;;;;33.31;24.55;99894.23;1726767;81;21556;-70
2022/06/09 05:47:28;;;;;;;5.95;0.65;;;;;;;33.40;24.75;99887.15;1710728;82;21044;-67
2022/06/09 05:49:55;;;;;;;1.50;0.57;;;;;;;33.45;24.33;99891.84;1707813;82;21061;-66
2022/06/09 05:52:26;;;;;;;1.00;0.50;;;;;;;33.46;24.26;99889.91;1707843;82;21058;-70
2022/06/09 05:54:53;;;;;;;7.37;0.65;;;;;;;33.54;24.22;99889.72;1720382;82;21005;-76
2022/06/09 05:57:22;;;;;;;3.42;0.55;;;;;;;33.79;24.24;99893.73;1697159;84;21057;-77
2022/06/09 05:59:50;;;;;;;7.58;0.28;;;;;;;33.77;23.33;99891.91;1697284;84;21098;-65
2022/06/09 06:02:20;;;;;;;2.20;0.50;;;;;;;33.53;23.23;99891.45;1690693;84;20958;-68
2022/06/09 06:04:46;;;;;;;4.08;0.20;;;;;;;33.33;23.61;99898.23;1696957;84;20970;-67
2022/06/09 06:07:13;;;;;;;2.10;0.60;;;;;;;33.16;23.62;99898.55;1701227;84;21466;-66
2022/06/09 06:09:41;;;;;;;7.85;0.75;;;;;;;33.06;24.03;99899.01;1696135;84;21104;-68
2022/06/09 06:12:11;;;;;;;3.62;0.70;;;;;;;32.97;24.21;99896.41;1712927;83;21493;-68
2022/06/09 06:14:38;;;;;;;3.25;0.65;;;;;;;32.94;23.91;99895.72;1726079;83;21544;-68
2022/06/09 06:17:06;;;;;;;3.37;0.50;;;;;;;33.00;24.52;99904.56;1718180;83;21030;-72
2022/06/09 06:19:32;;;;;;;0.90;0.50;;;;;;;33.07;24.04;99898.66;1706266;83;21576;-66
2022/06/09 06:21:58;;;;;;;3.80;0.60;;;;;;;33.19;24.00;99903.94;1720974;83;21060;-68
2022/06/09 06:24:25;;;;;;;7.08;0.80;;;;;;;33.26;23.57;99902.77;1728912;82;21125;-71
2022/06/09 06:26:53;;;;;;;1.30;0.78;;;;;;;33.14;23.77;99902.25;1712577;83;21554;-66
2022/06/09 06:29:24;;;;;;;1.20;0.53;;;;;;;33.01;24.58;99905.59;1726378;83;21059;-73
2022/06/09 06:31:51;;;;;;;0.85;0.45;;;;;;;33.02;24.40;99905.84;1716411;83;22163;-65
2022/06/09 06:34:20;;;;;;;4.83;0.53;;;;;;;33.12;23.58;99903.17;1715300;83;21050;-67
2022/06/09 06:36:46;;;;;;;3.70;0.60;;;;;;;33.14;22.88;99900.28;1714643;83;21077;-71
2022/06/09 06:39:13;;;;;;;2.42;0.75;;;;;;;33.10;23.06;99899.35;1704983;83;21038;-67
2022/06/09 06:41:39;;;;;;;2.42;0.30;;;;;;;33.09;23.07;99899.70;1713379;83;21137;-66
2022/06/09 06:44:06;;;;;;;5.80;0.42;;;;;;;33.06;23.02;99900.39;1717453;83;21071;-71
2022/06/09 06:46:33;;;;;;;5.85;0.47;;;;;;;32.89;23.60;99894.58;1718776;83;21046;-73
2022/06/09 06:48:59;;;;;;;0.95;0.50;;;;;;;32.89;23.43;99899.55;1697711;83;21011;-77
2022/06/09 06:51:25;;;;;;;3.35;0.50;;;;;;;33.04;23.01;99899.38;1717791;83;21723;-76
2022/06/09 06:53:51;;;;;;;1.17;0.78;;;;;;;33.08;23.05;99893.97;1712526;83;21562;-67
2022/06/09 06:56:18;;;;;;;2.77;0.20;;;;;;;33.18;23.62;99894.06;1706177;82;21130;-68
2022/06/09 06:58:44;;;;;;;2.20;0.30;;;;;;;33.40;23.07;99894.87;1712841;83;21161;-65
2022/06/09 07:01:11;;;;;;;2.15;0.30;;;;;;;33.50;22.42;99892.97;1704244;83;21034;-72
2022/06/09 07:03:37;;;;;;;2.47;0.57;;;;;;;33.40;23.02;99886.59;1702246;83;22155;-68
2022/06/09 07:06:05;;;;;;;1.42;0.30;;;;;;;33.37;22.77;99894.20;1703130;83;21054;-71
2022/06/09 07:08:35;;;;;;;1.75;0.10;;;;;;;33.40;23.02;99889.36;1703806;83;21069;-69
2022/06/09 07:11:05;;;;;;;0.82;0.23;;;;;;;33.38;22.30;99895.81;1698125;83;21066;-75
2022/06/09 07:13:31;;;;;;;1.30;0.20;;;;;;;33.10;22.19;99896.59;1702395;83;21693;-71
2022/06/09 07:15:57;;;;;;;2.17;0.20;;;;;;;32.84;22.32;99892.09;1701407;83;21051;-68
2022/06/09 07:18:23;;;;;;;4.22;0.17;;;;;;;32.75;22.54;99891.63;1700324;83;21069;-68
2022/06/09 07:20:50;;;;;;;0.62;0.10;;;;;;;32.81;22.54;99895.53;1699894;83;21116;-68
2022/06/09 07:23:17;;;;;;;2.85;0.20;;;;;;;32.71;22.25;99900.97;1708841;83;21183;-68
2022/06/09 07:25:44;;;;;;;1.75;0.30;;;;;;;32.60;23.15;99899.26;1729037;81;21139;-68
2022/06/09 07:28:10;;;;;;;1.00;0.40;;;;;;;32.53;22.71;99886.59;1739186;81;21093;-69
2022/06/09 07:30:40;;;;;;;2.35;0.47;;;;;;;32.62;23.44;99898.33;1745552;81;21051;-70
2022/06/09 07:33:06;;;;;;;3.52;0.40;;;;;;;32.72;22.74;99898.42;1729195;81;21038;-68
2022/06/09 07:35:36;;;;;;;3.27;0.10;;;;;;;32.53;22.92;99901.21;1692816;83;21058;-70
2022/06/09 07:38:05;;;;;;;0.25;0.10;;;;;;;32.22;23.24;99899.63;1698824;83;21137;-67
2022/06/09 07:40:35;;;;;;;2.70;0.17;;;;;;;32.08;23.30;99897.19;1690083;83;21367;-70
2022/06/09 07:43:03;;;;;;;3.65;0.35;;;;;;;32.09;23.50;99903.75;1694146;83;21572;-73
2022/06/09 07:45:31;;;;;;;1.55;0.20;;;;;;;32.05;23.81;99897.90;1692155;83;21125;-70
2022/06/09 07:47:58;;;;;;;5.15;0.20;;;;;;;31.88;23.99;99901.64;1702783;83;21644;-77
2022/06/09 07:50:24;;;;;;;2.17;0.53;;;;;;;31.56;24.37;99904.11;1692917;83;21109;-70
2022/06/09 07:52:51;;;;;;;3.42;0.85;;;;;;;31.32;24.93;99900.09;1636990;86;21161;-67
2022/06/09 07:55:17;;;;;;;3.65;0.20;;;;;;;31.10;25.01;99901.28;1665208;85;21137;-72
2022/06/09 07:57:44;;;;;;;2.17;0.33;;;;;;;30.92;25.16;99903.94;1700739;83;21065;-73
2022/06/09 08:00:13;;;;;;;1.92;0.40;;;;;;;30.79;25.53;99904.41;1653288;86;21600;-70
2022/06/09 08:02:41;;;;;;;3.30;0.37;;;;;;;30.38;25.70;99862.77;1604310;88;21055;-71
2022/06/09 08:05:08;;;;;;;1.07;0.40;;;;;;;30.47;25.93;99901.22;1679019;84;21635;-71
2022/06/09 08:07:34;;;;;;;2.60;0.53;;;;;;;30.23;26.78;99900.42;1689086;83;21576;-69
2022/06/09 08:10:03;;;;;;;1.20;0.20;;;;;;;29.99;27.71;99900.47;1685983;83;21121;-71
2022/06/09 08:12:31;;;;;;;3.65;0.50;;;;;;;29.75;27.77;99901.61;1694934;83;21038;-68
2022/06/09 08:14:57;;;;;;;1.87;0.30;;;;;;;29.53;27.98;99904.77;1716931;83;21078;-73
2022/06/09 08:17:24;;;;;;;7.50;0.50;;;;;;;29.34;27.70;99902.95;1706778;83;21582;-75
2022/06/09 08:19:50;;;;;;;2.50;0.37;;;;;;;29.18;27.61;99905.37;1708888;83;21495;-74
2022/06/09 08:22:17;;;;;;;1.00;0.30;;;;;;;29.05;27.89;99910.69;1705727;83;21054;-72
2022/06/09 08:24:44;;;;;;;1.10;0.13;;;;;;;28.98;27.09;99912.30;1691628;82;21113;-73
2022/06/09 08:27:10;;;;;;;1.45;0.20;;;;;;;28.97;27.18;99910.13;1704992;83;21380;-68
2022/06/09 08:29:37;;;;;;;2.00;0.20;;;;;;;28.97;26.97;99916.16;1702053;82;21070;-74
2022/06/09 08:32:04;;;;;;;2.65;0.30;;;;;;;28.96;26.80;99915.93;1703834;82;21121;-73
2022/06/09 08:34:31;;;;;;;0.20;0.20;;;;;;;28.96;26.66;99914.56;1684321;82;21159;-66
2022/06/09 08:36:58;;;;;;;0.95;0.28;;;;;;;28.98;26.48;99915.05;1689155;83;20982;-69
2022/06/09 08:39:25;;;;;;;1.20;0.20;;;;;;;29.02;26.61;99914.06;1690476;83;21939;-72
2022/06/09 08:42:35;;;;;;;1.37;0.37;;;;;;;29.04;26.76;99911.00;1694457;83;22298;-75
2022/06/09 08:45:07;;;;;;;0.55;0.20;;;;;;;29.03;27.64;99906.66;1678593;83;21048;-67
2022/06/09 08:47:49;;;;;;;2.67;0.47;;;;;;;28.95;28.46;99913.73;1672072;83;21139;-70
2022/06/09 08:50:29;;;;;;;0.80;0.30;;;;;;;28.92;28.80;99915.19;1643359;85;21070;-64
2022/06/09 08:53:09;;;;;;;0.72;0.20;;;;;;;28.92;27.76;99913.82;1631019;86;21081;-63
2022/06/09 08:55:53;;;;;;;1.37;0.50;;;;;;;28.99;27.57;99905.66;1631069;85;21130;-74
2022/06/09 08:58:42;;;;;;;1.95;0.40;;;;;;;28.99;27.92;99897.44;1659966;85;21141;-65
2022/06/09 09:01:44;;;;;;;0.60;0.40;;;;;;;28.92;29.39;99908.91;1631021;87;21242;-62
2022/06/09 09:04:45;;;;;;;4.58;0.37;;;;;;;28.79;29.30;99907.92;1628732;86;21054;-64
2022/06/09 09:07:30;;;;;;;4.45;0.37;;;;;;;28.73;29.52;99911.38;1634896;86;21055;-65
2022/06/09 09:10:32;;;;;;;3.05;0.90;;;;;;;28.78;29.60;99908.23;1650697;85;21047;-69
2022/06/09 09:13:35;;;;;;;0.65;0.20;;;;;;;28.79;29.41;99907.92;1688872;83;22157;-70
2022/06/09 09:16:10;;;;;;;1.98;0.10;;;;;;;28.70;28.55;99907.90;1626377;86;21125;-73
2022/06/09 09:19:22;;;;;;;3.20;0.15;;;;;;;28.65;28.18;99903.13;1645779;86;21161;-65
2022/06/09 09:22:26;;;;;;;0.42;0.10;;;;;;;28.73;27.80;99912.75;1676910;83;21023;-67
2022/06/09 09:25:23;;;;;;;0.15;0.10;;;;;;;28.82;27.50;99905.92;1690688;84;21569;-68
2022/06/09 09:27:54;;;;;;;0.42;0.20;;;;;;;28.83;27.65;99897.92;1687771;83;21716;-68
2022/06/09 09:30:29;;;;;;;0.60;0.15;;;;;;;28.97;27.43;99895.58;1665212;83;21114;-69
2022/06/09 09:32:57;;;;;;;0.30;0.20;;;;;;;29.08;27.05;99903.73;1700550;83;21149;-65
2022/06/09 09:35:41;;;;;;;1.27;0.20;;;;;;;29.08;26.97;99901.81;1690348;84;21027;-69
2022/06/09 09:38:10;;;;;;;3.80;0.10;;;;;;;29.17;26.96;99888.10;1680255;83;21097;-71
2022/06/09 09:40:44;;;;;;;1.75;0.10;;;;;;;29.27;26.86;99883.67;1689912;84;21498;-72
2022/06/09 09:43:19;;;;;;;2.12;0.10;;;;;;;29.33;26.68;99886.22;1683030;85;21202;-74
2022/06/09 09:45:55;;;;;;;3.13;0.10;;;;;;;29.37;26.86;99880.34;1687336;83;21608;-71
2022/06/09 09:48:28;;;;;;;1.60;0.10;;;;;;;29.51;26.38;99883.69;1691426;84;21224;-68
2022/06/09 09:51:10;;;;;;;0.50;0.17;;;;;;;29.66;26.18;99886.48;1692704;84;21122;-68
2022/06/09 09:53:49;;;;;;;2.65;0.10;;;;;;;29.76;26.21;99869.70;1687061;84;21083;-62
2022/06/09 09:56:24;;;;;;;1.20;0.10;;;;;;;29.77;25.88;99886.97;1694164;84;21103;-66
2022/06/09 09:58:58;;;;;;;3.17;0.10;;;;;;;29.65;26.17;99879.39;1694079;83;21404;-68
2022/06/09 10:01:34;;;;;;;4.83;0.15;;;;;;;29.21;25.87;99840.24;1647377;85;21054;-70
2022/06/09 10:10:15;;;;;;;1.42;0.10;;;;;;;29.39;26.44;99877.51;1658691;84;21248;-67
2022/06/09 10:12:43;;;;;;;0.50;0.20;;;;;;;29.49;25.83;99880.47;1674864;83;21597;-68
2022/06/09 10:15:15;;;;;;;0.10;0.10;;;;;;;29.54;25.91;99865.78;1664762;85;21042;-79
2022/06/09 10:18:06;;;;;;;1.47;0.13;;;;;;;29.61;25.47;99868.80;1669135;84;21636;-66
2022/06/09 10:20:47;;;;;;;1.75;0.10;;;;;;;29.64;25.57;99866.20;1664950;84;21037;-73
2022/06/09 10:23:42;;;;;;;2.35;0.10;;;;;;;29.68;26.03;99866.36;1672053;83;21102;-82
2022/06/09 10:26:19;;;;;;;0.37;0.10;;;;;;;29.74;25.72;99867.81;1685149;84;21102;-75
2022/06/09 10:29:16;;;;;;;1.42;0.13;;;;;;;29.76;25.73;99875.73;1688509;84;21127;-73
2022/06/09 10:32:04;;;;;;;0.23;0.10;;;;;;;29.63;25.50;99864.61;1699128;84;21641;-71
2022/06/09 10:34:52;;;;;;;;;;;;;;;29.55;26.06;99855.81;1702817;84;21057;-76
2022/06/09 10:37:27;;;;;;;1.87;0.20;;;;;;;29.55;26.48;99855.02;1683743;84;20118;-80
2022/06/09 10:40:38;;;;;;;3.60;0.20;;;;;;;29.54;26.80;99856.97;1697877;84;21169;-75
2022/06/09 10:43:39;;;;;;;2.62;0.10;;;;;;;29.56;26.21;99866.25;1688127;84;21095;-72
2022/06/09 10:46:36;;;;;;;0.17;0.10;;;;;;;29.64;26.18;99855.22;1687286;84;21097;-78
2022/06/09 10:55:56;;;;;;;0.72;0.10;;;;;;;29.61;26.19;99849.58;1698465;83;21094;-80
2022/06/09 10:58:44;;;;;;;0.55;0.10;;;;;;;29.60;26.37;99846.03;1721764;83;21766;-75
2022/06/09 11:01:21;;;;;;;0.10;0.10;;;;;;;29.62;26.47;99845.14;1645209;85;21106;-76
2022/06/09 11:03:51;;;;;;;0.62;0.10;;;;;;;29.67;26.50;99845.55;1631773;86;21048;-73
2022/06/09 11:06:49;;;;;;;1.25;0.20;;;;;;;29.66;26.50;99852.16;1633787;86;21132;-74
2022/06/09 11:09:52;;;;;;;2.00;0.15;;;;;;;29.73;26.70;99846.17;1639703;86;21046;-83
2022/06/09 11:12:45;;;;;;;1.07;0.13;;;;;;;29.83;26.69;99838.38;1636502;86;21039;-78
2022/06/09 11:15:21;;;;;;;1.20;0.10;;;;;;;29.84;26.75;99836.45;1630903;86;21189;-78
2022/06/09 11:18:01;;;;;;;0.20;0.10;;;;;;;29.87;26.33;99849.52;1640248;85;21601;-82
2022/06/09 11:21:08;;;;;;;3.75;0.20;;;;;;;29.95;26.02;99840.99;1661419;85;21057;-83
2022/06/09 11:23:53;;;;;;;0.47;0.10;;;;;;;29.99;25.99;99838.64;1658165;85;21208;-75
2022/06/09 11:26:55;;;;;;;0.85;0.10;;;;;;;30.02;26.16;99850.91;1661144;85;21086;-83
2022/06/09 11:29:41;;;;;;;0.68;0.10;;;;;;;30.04;25.98;99843.92;1618213;86;21126;-80
2022/06/09 11:32:23;;;;;;;;;;;;;;;30.03;26.01;99841.53;1641125;85;21146;-73
2022/06/09 11:35:01;;;;;;;1.27;0.15;;;;;;;29.98;26.42;99843.89;1665182;85;20137;-74
2022/06/09 11:38:08;;;;;;;0.70;0.20;;;;;;;29.78;27.01;99844.62;1636582;86;21026;-74
2022/06/09 11:40:49;;;;;;;0.30;0.10;;;;;;;29.61;27.03;99836.67;1636861;86;21090;-74
2022/06/09 11:43:24;;;;;;;4.25;0.15;;;;;;;29.44;27.35;99840.83;1619427;87;21607;-78
2022/06/09 11:45:59;;;;;;;1.27;0.25;;;;;;;29.34;27.70;99840.61;1621466;87;21101;-74
2022/06/09 11:48:42;;;;;;;2.08;0.23;;;;;;;29.30;27.78;99844.58;1625237;86;21125;-85
2022/06/09 11:51:10;;;;;;;0.20;0.10;;;;;;;29.25;27.71;99851.63;1662113;85;21119;-77
2022/06/09 11:53:41;;;;;;;1.05;0.20;;;;;;;29.22;27.82;99845.41;1655259;85;21030;-78
2022/06/09 11:56:33;;;;;;;0.68;0.10;;;;;;;29.26;28.00;99839.50;1649669;85;21448;-76
2022/06/09 11:59:15;;;;;;;0.20;0.10;;;;;;;29.34;28.12;99835.70;1624012;86;21558;-83
2022/06/09 12:02:02;;;;;;;1.32;0.10;;;;;;;29.46;27.55;99832.52;1659890;85;21224;-76
2022/06/09 12:05:17;;;;;;;0.20;0.10;;;;;;;29.51;27.15;99831.52;1631757;86;21173;-75
2022/06/09 12:08:27;;;;;;;1.45;0.28;;;;;;;29.46;27.18;99826.20;1554023;86;21224;-75
2022/06/09 12:11:02;;;;;;;3.55;0.20;;;;;;;29.50;27.29;99825.81;1656225;85;21613;-75
2022/06/09 12:14:00;;;;;;;0.25;0.15;;;;;;;29.58;27.24;99831.03;1635010;86;21131;-78
2022/06/09 12:16:37;;;;;;;0.20;0.10;;;;;;;29.66;26.92;99824.69;1649764;85;21041;-76
2022/06/09 12:19:29;;;;;;;1.77;0.10;;;;;;;29.51;26.67;99795.83;1619700;85;21166;-78
2022/06/09 12:22:01;;;;;;;0.15;0.10;;;;;;;29.78;26.21;99838.58;1657545;85;21125;-78
2022/06/09 12:24:36;;;;;;;1.15;0.20;;;;;;;29.78;26.06;99838.58;1651575;85;21639;-78
2022/06/09 12:27:21;;;;;;;0.82;0.10;;;;;;;29.78;26.01;99836.38;1658799;85;21203;-80